sensor_id;sensor_type;location;lat;lon;timestamp;P1;durP1;ratioP1;P2;durP2;ratioP2
22240;SDS011;11289;52.524;13.694;2022-07-29T00:01:28;9.70;;;3.40;;
22240;SDS011;11289;52.524;13.694;2022-07-29T00:03:54;4.05;;;2.22;;
22240;SDS011;11289;52.524;13.694;2022-07-29T00:06:20;5.28;;;2.50;;
22240;SDS011;11289;52.524;13.694;2022-07-29T00:08:45;5.45;;;2.85;;
22240;SDS011;11289;52.524;13.694;2022-07-29T00:11:11;3.97;;;2.17;;
22240;SDS011;11289;52.524;13.694;2022-07-29T00:13:36;4.00;;;2.38;;
22240;SDS011;11289;52.524;13.694;2022-07-29T00:16:02;4.20;;;2.42;;
22240;SDS011;11289;52.524;13.694;2022-07-29T00:18:27;6.25;;;2.97;;
22240;SDS011;11289;52.524;13.694;2022-07-29T00:20:53;5.05;;;3.22;;
22240;SDS011;11289;52.524;13.694;2022-07-29T00:23:18;7.28;;;2.90;;
22240;SDS011;11289;52.524;13.694;2022-07-29T00:25:44;6.63;;;2.97;;
22240;SDS011;11289;52.524;13.694;2022-07-29T00:28:09;9.13;;;3.65;;
22240;SDS011;11289;52.524;13.694;2022-07-29T00:30:34;9.75;;;3.22;;
22240;SDS011;11289;52.524;13.694;2022-07-29T00:33:00;8.75;;;3.45;;
22240;SDS011;11289;52.524;13.694;2022-07-29T00:35:25;7.93;;;3.08;;
22240;SDS011;11289;52.524;13.694;2022-07-29T00:38:09;5.45;;;3.15;;
22240;SDS011;11289;52.524;13.694;2022-07-29T00:40:39;4.15;;;2.95;;
22240;SDS011;11289;52.524;13.694;2022-07-29T00:43:05;8.63;;;3.58;;
22240;SDS011;11289;52.524;13.694;2022-07-29T00:45:31;7.20;;;3.38;;
22240;SDS011;11289;52.524;13.694;2022-07-29T00:47:56;5.68;;;3.05;;
22240;SDS011;11289;52.524;13.694;2022-07-29T00:50:22;8.93;;;3.72;;
22240;SDS011;11289;52.524;13.694;2022-07-29T00:52:48;7.90;;;4.18;;
22240;SDS011;11289;52.524;13.694;2022-07-29T00:55:14;4.97;;;3.10;;
22240;SDS011;11289;52.524;13.694;2022-07-29T00:57:41;7.22;;;3.53;;
22240;SDS011;11289;52.524;13.694;2022-07-29T01:00:08;6.68;;;3.50;;
22240;SDS011;11289;52.524;13.694;2022-07-29T01:02:36;7.45;;;3.22;;
22240;SDS011;11289;52.524;13.694;2022-07-29T01:05:02;4.32;;;2.45;;
22240;SDS011;11289;52.524;13.694;2022-07-29T01:07:30;8.27;;;3.65;;
22240;SDS011;11289;52.524;13.694;2022-07-29T01:09:58;6.95;;;3.70;;
22240;SDS011;11289;52.524;13.694;2022-07-29T01:12:26;6.97;;;2.80;;
22240;SDS011;11289;52.524;13.694;2022-07-29T01:14:54;4.05;;;3.08;;
22240;SDS011;11289;52.524;13.694;2022-07-29T01:17:21;6.85;;;2.97;;
22240;SDS011;11289;52.524;13.694;2022-07-29T01:19:59;10.20;;;3.50;;
22240;SDS011;11289;52.524;13.694;2022-07-29T01:25:22;6.05;;;2.90;;
22240;SDS011;11289;52.524;13.694;2022-07-29T01:31:11;5.88;;;3.30;;
22240;SDS011;11289;52.524;13.694;2022-07-29T01:33:41;5.65;;;3.10;;
22240;SDS011;11289;52.524;13.694;2022-07-29T01:36:23;6.32;;;2.72;;
22240;SDS011;11289;52.524;13.694;2022-07-29T01:42:10;9.73;;;3.67;;
22240;SDS011;11289;52.524;13.694;2022-07-29T01:47:19;6.07;;;2.95;;
22240;SDS011;11289;52.524;13.694;2022-07-29T01:49:49;6.53;;;3.10;;
22240;SDS011;11289;52.524;13.694;2022-07-29T01:52:23;5.97;;;2.97;;
22240;SDS011;11289;52.524;13.694;2022-07-29T01:54:59;6.40;;;3.05;;
22240;SDS011;11289;52.524;13.694;2022-07-29T01:57:32;4.13;;;2.67;;
22240;SDS011;11289;52.524;13.694;2022-07-29T02:00:01;4.90;;;3.08;;
22240;SDS011;11289;52.524;13.694;2022-07-29T02:02:28;6.68;;;2.92;;
22240;SDS011;11289;52.524;13.694;2022-07-29T02:04:56;5.75;;;3.63;;
22240;SDS011;11289;52.524;13.694;2022-07-29T02:07:23;5.10;;;2.78;;
22240;SDS011;11289;52.524;13.694;2022-07-29T02:09:51;5.60;;;2.75;;
22240;SDS011;11289;52.524;13.694;2022-07-29T02:12:18;4.60;;;2.90;;
22240;SDS011;11289;52.524;13.694;2022-07-29T02:14:45;5.53;;;3.13;;
22240;SDS011;11289;52.524;13.694;2022-07-29T02:17:15;5.22;;;2.90;;
22240;SDS011;11289;52.524;13.694;2022-07-29T02:19:47;6.70;;;3.38;;
22240;SDS011;11289;52.524;13.694;2022-07-29T02:22:14;5.68;;;2.88;;
22240;SDS011;11289;52.524;13.694;2022-07-29T02:24:41;4.45;;;3.08;;
22240;SDS011;11289;52.524;13.694;2022-07-29T02:27:09;6.55;;;3.05;;
22240;SDS011;11289;52.524;13.694;2022-07-29T02:29:36;6.68;;;3.10;;
22240;SDS011;11289;52.524;13.694;2022-07-29T02:32:02;10.27;;;3.33;;
22240;SDS011;11289;52.524;13.694;2022-07-29T02:34:29;6.03;;;2.90;;
22240;SDS011;11289;52.524;13.694;2022-07-29T02:36:56;3.83;;;2.60;;
22240;SDS011;11289;52.524;13.694;2022-07-29T02:39:21;9.32;;;3.05;;
22240;SDS011;11289;52.524;13.694;2022-07-29T02:41:54;6.68;;;3.10;;
22240;SDS011;11289;52.524;13.694;2022-07-29T02:44:24;4.32;;;2.92;;
22240;SDS011;11289;52.524;13.694;2022-07-29T02:52:14;5.05;;;3.05;;
22240;SDS011;11289;52.524;13.694;2022-07-29T02:54:56;5.28;;;2.80;;
22240;SDS011;11289;52.524;13.694;2022-07-29T02:57:30;5.22;;;2.95;;
22240;SDS011;11289;52.524;13.694;2022-07-29T03:00:00;5.88;;;3.45;;
22240;SDS011;11289;52.524;13.694;2022-07-29T03:02:31;9.27;;;3.60;;
22240;SDS011;11289;52.524;13.694;2022-07-29T03:05:02;9.55;;;3.80;;
22240;SDS011;11289;52.524;13.694;2022-07-29T03:07:32;4.88;;;3.08;;
22240;SDS011;11289;52.524;13.694;2022-07-29T03:10:00;8.32;;;3.55;;
22240;SDS011;11289;52.524;13.694;2022-07-29T03:12:27;4.90;;;3.33;;
22240;SDS011;11289;52.524;13.694;2022-07-29T03:14:55;7.80;;;2.58;;
22240;SDS011;11289;52.524;13.694;2022-07-29T03:17:21;5.93;;;3.20;;
22240;SDS011;11289;52.524;13.694;2022-07-29T03:19:48;7.05;;;2.88;;
22240;SDS011;11289;52.524;13.694;2022-07-29T03:22:15;4.22;;;3.25;;
22240;SDS011;11289;52.524;13.694;2022-07-29T03:24:44;7.10;;;3.60;;
22240;SDS011;11289;52.524;13.694;2022-07-29T03:27:13;5.30;;;2.70;;
22240;SDS011;11289;52.524;13.694;2022-07-29T03:29:41;4.78;;;3.08;;
22240;SDS011;11289;52.524;13.694;2022-07-29T03:32:08;6.03;;;2.97;;
22240;SDS011;11289;52.524;13.694;2022-07-29T03:34:37;5.28;;;3.20;;
22240;SDS011;11289;52.524;13.694;2022-07-29T03:37:06;6.45;;;3.00;;
22240;SDS011;11289;52.524;13.694;2022-07-29T03:39:35;6.20;;;3.35;;
22240;SDS011;11289;52.524;13.694;2022-07-29T03:42:08;6.80;;;2.90;;
22240;SDS011;11289;52.524;13.694;2022-07-29T03:44:38;5.38;;;2.67;;
22240;SDS011;11289;52.524;13.694;2022-07-29T03:47:07;7.50;;;3.38;;
22240;SDS011;11289;52.524;13.694;2022-07-29T03:49:38;7.50;;;2.65;;
22240;SDS011;11289;52.524;13.694;2022-07-29T03:52:11;6.25;;;2.97;;
22240;SDS011;11289;52.524;13.694;2022-07-29T03:54:39;4.93;;;3.13;;
22240;SDS011;11289;52.524;13.694;2022-07-29T03:57:08;7.95;;;3.00;;
22240;SDS011;11289;52.524;13.694;2022-07-29T03:59:42;6.15;;;3.22;;
22240;SDS011;11289;52.524;13.694;2022-07-29T04:02:13;6.22;;;3.30;;
22240;SDS011;11289;52.524;13.694;2022-07-29T04:04:41;6.30;;;3.08;;
22240;SDS011;11289;52.524;13.694;2022-07-29T04:07:14;11.68;;;3.42;;
22240;SDS011;11289;52.524;13.694;2022-07-29T04:09:40;7.13;;;3.03;;
22240;SDS011;11289;52.524;13.694;2022-07-29T04:12:06;5.32;;;3.00;;
22240;SDS011;11289;52.524;13.694;2022-07-29T04:14:32;4.82;;;2.15;;
22240;SDS011;11289;52.524;13.694;2022-07-29T04:16:58;5.78;;;2.72;;
22240;SDS011;11289;52.524;13.694;2022-07-29T04:19:23;9.23;;;2.63;;
22240;SDS011;11289;52.524;13.694;2022-07-29T04:21:49;5.70;;;3.08;;
22240;SDS011;11289;52.524;13.694;2022-07-29T04:24:14;6.25;;;2.72;;
22240;SDS011;11289;52.524;13.694;2022-07-29T04:26:40;6.47;;;3.13;;
22240;SDS011;11289;52.524;13.694;2022-07-29T04:29:05;5.22;;;3.05;;
22240;SDS011;11289;52.524;13.694;2022-07-29T04:31:31;6.50;;;3.10;;
22240;SDS011;11289;52.524;13.694;2022-07-29T04:33:56;3.63;;;2.17;;
22240;SDS011;11289;52.524;13.694;2022-07-29T04:36:22;4.22;;;3.00;;
22240;SDS011;11289;52.524;13.694;2022-07-29T04:38:47;9.52;;;3.28;;
22240;SDS011;11289;52.524;13.694;2022-07-29T04:41:13;5.75;;;2.78;;
22240;SDS011;11289;52.524;13.694;2022-07-29T04:43:39;6.85;;;2.80;;
22240;SDS011;11289;52.524;13.694;2022-07-29T04:46:05;8.05;;;3.28;;
22240;SDS011;11289;52.524;13.694;2022-07-29T04:48:31;6.13;;;2.97;;
22240;SDS011;11289;52.524;13.694;2022-07-29T04:50:57;5.78;;;2.97;;
22240;SDS011;11289;52.524;13.694;2022-07-29T04:53:22;5.15;;;2.80;;
22240;SDS011;11289;52.524;13.694;2022-07-29T04:55:48;6.53;;;2.88;;
22240;SDS011;11289;52.524;13.694;2022-07-29T04:58:13;9.50;;;2.95;;
22240;SDS011;11289;52.524;13.694;2022-07-29T05:00:39;5.43;;;2.90;;
22240;SDS011;11289;52.524;13.694;2022-07-29T05:03:04;5.72;;;2.95;;
22240;SDS011;11289;52.524;13.694;2022-07-29T05:05:30;4.93;;;2.90;;
22240;SDS011;11289;52.524;13.694;2022-07-29T05:07:55;5.82;;;3.35;;
22240;SDS011;11289;52.524;13.694;2022-07-29T05:10:21;7.22;;;3.28;;
22240;SDS011;11289;52.524;13.694;2022-07-29T05:12:47;3.92;;;2.33;;
22240;SDS011;11289;52.524;13.694;2022-07-29T05:15:13;4.57;;;2.80;;
22240;SDS011;11289;52.524;13.694;2022-07-29T05:17:39;4.18;;;2.70;;
22240;SDS011;11289;52.524;13.694;2022-07-29T05:20:05;3.72;;;2.45;;
22240;SDS011;11289;52.524;13.694;2022-07-29T05:22:31;7.15;;;3.15;;
22240;SDS011;11289;52.524;13.694;2022-07-29T05:24:56;6.60;;;3.00;;
22240;SDS011;11289;52.524;13.694;2022-07-29T05:27:21;5.47;;;2.67;;
22240;SDS011;11289;52.524;13.694;2022-07-29T05:29:47;6.05;;;2.95;;
22240;SDS011;11289;52.524;13.694;2022-07-29T05:32:12;6.15;;;2.22;;
22240;SDS011;11289;52.524;13.694;2022-07-29T05:34:38;5.22;;;2.13;;
22240;SDS011;11289;52.524;13.694;2022-07-29T05:37:04;5.35;;;2.35;;
22240;SDS011;11289;52.524;13.694;2022-07-29T05:39:30;5.80;;;3.30;;
22240;SDS011;11289;52.524;13.694;2022-07-29T05:41:55;6.43;;;2.83;;
22240;SDS011;11289;52.524;13.694;2022-07-29T05:44:21;6.38;;;2.92;;
22240;SDS011;11289;52.524;13.694;2022-07-29T05:46:46;5.43;;;2.92;;
22240;SDS011;11289;52.524;13.694;2022-07-29T05:49:12;2.92;;;2.42;;
22240;SDS011;11289;52.524;13.694;2022-07-29T05:51:37;6.10;;;2.50;;
22240;SDS011;11289;52.524;13.694;2022-07-29T05:54:02;5.97;;;3.30;;
22240;SDS011;11289;52.524;13.694;2022-07-29T05:56:28;9.23;;;2.83;;
22240;SDS011;11289;52.524;13.694;2022-07-29T05:58:54;6.00;;;2.60;;
22240;SDS011;11289;52.524;13.694;2022-07-29T06:01:19;6.28;;;2.80;;
22240;SDS011;11289;52.524;13.694;2022-07-29T06:03:45;6.93;;;2.72;;
22240;SDS011;11289;52.524;13.694;2022-07-29T06:06:11;5.40;;;2.55;;
22240;SDS011;11289;52.524;13.694;2022-07-29T06:08:37;5.97;;;2.83;;
22240;SDS011;11289;52.524;13.694;2022-07-29T06:11:03;8.18;;;2.95;;
22240;SDS011;11289;52.524;13.694;2022-07-29T06:13:29;5.15;;;3.00;;
22240;SDS011;11289;52.524;13.694;2022-07-29T06:15:55;5.22;;;2.60;;
22240;SDS011;11289;52.524;13.694;2022-07-29T06:18:21;5.88;;;2.75;;
22240;SDS011;11289;52.524;13.694;2022-07-29T06:20:49;6.30;;;2.50;;
22240;SDS011;11289;52.524;13.694;2022-07-29T06:23:16;7.97;;;3.03;;
22240;SDS011;11289;52.524;13.694;2022-07-29T06:25:41;5.72;;;2.75;;
22240;SDS011;11289;52.524;13.694;2022-07-29T06:28:07;5.85;;;2.53;;
22240;SDS011;11289;52.524;13.694;2022-07-29T06:30:32;5.82;;;2.55;;
22240;SDS011;11289;52.524;13.694;2022-07-29T06:32:58;8.95;;;2.55;;
22240;SDS011;11289;52.524;13.694;2022-07-29T06:35:23;4.45;;;2.30;;
22240;SDS011;11289;52.524;13.694;2022-07-29T06:37:48;5.90;;;2.65;;
22240;SDS011;11289;52.524;13.694;2022-07-29T06:40:14;8.63;;;2.97;;
22240;SDS011;11289;52.524;13.694;2022-07-29T06:42:58;8.30;;;2.30;;
22240;SDS011;11289;52.524;13.694;2022-07-29T06:45:23;5.68;;;2.50;;
22240;SDS011;11289;52.524;13.694;2022-07-29T06:47:49;4.20;;;2.10;;
22240;SDS011;11289;52.524;13.694;2022-07-29T06:50:14;5.20;;;2.15;;
22240;SDS011;11289;52.524;13.694;2022-07-29T06:52:40;5.15;;;2.28;;
22240;SDS011;11289;52.524;13.694;2022-07-29T06:55:06;5.43;;;2.42;;
22240;SDS011;11289;52.524;13.694;2022-07-29T06:57:32;8.10;;;2.25;;
22240;SDS011;11289;52.524;13.694;2022-07-29T06:59:57;3.17;;;2.17;;
22240;SDS011;11289;52.524;13.694;2022-07-29T07:02:23;4.05;;;1.83;;
22240;SDS011;11289;52.524;13.694;2022-07-29T07:04:48;4.90;;;2.10;;
22240;SDS011;11289;52.524;13.694;2022-07-29T07:07:14;6.05;;;2.17;;
22240;SDS011;11289;52.524;13.694;2022-07-29T07:09:39;8.50;;;2.13;;
22240;SDS011;11289;52.524;13.694;2022-07-29T07:12:05;6.05;;;2.55;;
22240;SDS011;11289;52.524;13.694;2022-07-29T07:14:30;3.95;;;2.70;;
22240;SDS011;11289;52.524;13.694;2022-07-29T07:16:56;8.35;;;2.85;;
22240;SDS011;11289;52.524;13.694;2022-07-29T07:19:22;2.83;;;1.85;;
22240;SDS011;11289;52.524;13.694;2022-07-29T07:21:47;5.10;;;1.77;;
22240;SDS011;11289;52.524;13.694;2022-07-29T07:24:12;7.25;;;2.35;;
22240;SDS011;11289;52.524;13.694;2022-07-29T07:26:38;6.80;;;1.73;;
22240;SDS011;11289;52.524;13.694;2022-07-29T07:29:04;4.43;;;2.45;;
22240;SDS011;11289;52.524;13.694;2022-07-29T07:31:30;5.97;;;2.55;;
22240;SDS011;11289;52.524;13.694;2022-07-29T07:33:56;4.18;;;2.08;;
22240;SDS011;11289;52.524;13.694;2022-07-29T07:36:22;3.42;;;2.05;;
22240;SDS011;11289;52.524;13.694;2022-07-29T07:38:48;5.38;;;2.05;;
22240;SDS011;11289;52.524;13.694;2022-07-29T07:41:14;5.88;;;1.98;;
22240;SDS011;11289;52.524;13.694;2022-07-29T07:43:39;5.15;;;2.20;;
22240;SDS011;11289;52.524;13.694;2022-07-29T07:46:05;6.03;;;2.15;;
22240;SDS011;11289;52.524;13.694;2022-07-29T07:48:30;3.53;;;1.85;;
22240;SDS011;11289;52.524;13.694;2022-07-29T07:50:56;7.07;;;1.95;;
22240;SDS011;11289;52.524;13.694;2022-07-29T07:53:21;6.72;;;2.10;;
22240;SDS011;11289;52.524;13.694;2022-07-29T07:55:47;4.90;;;1.83;;
22240;SDS011;11289;52.524;13.694;2022-07-29T07:58:12;6.97;;;2.17;;
22240;SDS011;11289;52.524;13.694;2022-07-29T08:00:37;4.93;;;1.77;;
22240;SDS011;11289;52.524;13.694;2022-07-29T08:03:03;3.22;;;1.70;;
22240;SDS011;11289;52.524;13.694;2022-07-29T08:05:29;4.70;;;1.80;;
22240;SDS011;11289;52.524;13.694;2022-07-29T08:07:54;4.07;;;1.73;;
22240;SDS011;11289;52.524;13.694;2022-07-29T08:10:20;6.20;;;2.10;;
22240;SDS011;11289;52.524;13.694;2022-07-29T08:13:07;2.90;;;1.88;;
22240;SDS011;11289;52.524;13.694;2022-07-29T08:15:34;4.25;;;1.77;;
22240;SDS011;11289;52.524;13.694;2022-07-29T08:18:00;3.83;;;1.60;;
22240;SDS011;11289;52.524;13.694;2022-07-29T08:20:26;3.63;;;1.98;;
22240;SDS011;11289;52.524;13.694;2022-07-29T08:22:51;8.23;;;1.73;;
22240;SDS011;11289;52.524;13.694;2022-07-29T08:25:18;5.22;;;1.95;;
22240;SDS011;11289;52.524;13.694;2022-07-29T08:27:45;7.43;;;1.92;;
22240;SDS011;11289;52.524;13.694;2022-07-29T08:30:11;5.72;;;1.67;;
22240;SDS011;11289;52.524;13.694;2022-07-29T08:32:37;3.15;;;1.45;;
22240;SDS011;11289;52.524;13.694;2022-07-29T08:35:03;5.45;;;1.85;;
22240;SDS011;11289;52.524;13.694;2022-07-29T08:37:29;9.32;;;1.98;;
22240;SDS011;11289;52.524;13.694;2022-07-29T08:39:54;5.80;;;1.63;;
22240;SDS011;11289;52.524;13.694;2022-07-29T08:42:20;6.97;;;1.48;;
22240;SDS011;11289;52.524;13.694;2022-07-29T08:44:46;5.65;;;1.70;;
22240;SDS011;11289;52.524;13.694;2022-07-29T08:47:13;8.45;;;1.98;;
22240;SDS011;11289;52.524;13.694;2022-07-29T08:49:39;3.92;;;1.80;;
22240;SDS011;11289;52.524;13.694;2022-07-29T08:52:04;4.93;;;2.00;;
22240;SDS011;11289;52.524;13.694;2022-07-29T08:54:30;8.93;;;1.98;;
22240;SDS011;11289;52.524;13.694;2022-07-29T08:56:56;5.82;;;1.92;;
22240;SDS011;11289;52.524;13.694;2022-07-29T08:59:24;5.32;;;1.73;;
22240;SDS011;11289;52.524;13.694;2022-07-29T09:01:52;9.88;;;2.05;;
22240;SDS011;11289;52.524;13.694;2022-07-29T09:04:18;5.30;;;1.45;;
22240;SDS011;11289;52.524;13.694;2022-07-29T09:06:46;4.00;;;1.88;;
22240;SDS011;11289;52.524;13.694;2022-07-29T09:09:13;4.97;;;1.35;;
22240;SDS011;11289;52.524;13.694;2022-07-29T09:11:40;2.85;;;1.95;;
22240;SDS011;11289;52.524;13.694;2022-07-29T09:14:06;4.13;;;1.55;;
22240;SDS011;11289;52.524;13.694;2022-07-29T09:19:19;7.05;;;2.05;;
22240;SDS011;11289;52.524;13.694;2022-07-29T09:21:48;4.65;;;1.50;;
22240;SDS011;11289;52.524;13.694;2022-07-29T09:24:23;3.65;;;1.67;;
22240;SDS011;11289;52.524;13.694;2022-07-29T09:27:01;4.45;;;1.27;;
22240;SDS011;11289;52.524;13.694;2022-07-29T09:29:27;4.45;;;2.00;;
22240;SDS011;11289;52.524;13.694;2022-07-29T09:31:53;4.45;;;1.58;;
22240;SDS011;11289;52.524;13.694;2022-07-29T09:34:23;3.47;;;1.45;;
22240;SDS011;11289;52.524;13.694;2022-07-29T09:36:56;3.42;;;1.20;;
22240;SDS011;11289;52.524;13.694;2022-07-29T09:39:29;2.92;;;1.40;;
22240;SDS011;11289;52.524;13.694;2022-07-29T09:41:56;5.07;;;1.40;;
22240;SDS011;11289;52.524;13.694;2022-07-29T09:44:23;2.95;;;1.33;;
22240;SDS011;11289;52.524;13.694;2022-07-29T09:46:54;4.22;;;1.10;;
22240;SDS011;11289;52.524;13.694;2022-07-29T09:49:36;6.57;;;1.57;;
22240;SDS011;11289;52.524;13.694;2022-07-29T09:52:15;5.47;;;1.30;;
22240;SDS011;11289;52.524;13.694;2022-07-29T09:54:41;3.08;;;1.17;;
22240;SDS011;11289;52.524;13.694;2022-07-29T09:57:21;2.75;;;1.13;;
22240;SDS011;11289;52.524;13.694;2022-07-29T10:02:30;2.17;;;1.20;;
22240;SDS011;11289;52.524;13.694;2022-07-29T10:05:00;5.00;;;1.50;;
22240;SDS011;11289;52.524;13.694;2022-07-29T10:07:42;3.80;;;1.27;;
22240;SDS011;11289;52.524;13.694;2022-07-29T10:10:09;3.58;;;1.17;;
22240;SDS011;11289;52.524;13.694;2022-07-29T10:12:40;4.50;;;1.10;;
22240;SDS011;11289;52.524;13.694;2022-07-29T10:15:14;3.22;;;1.50;;
22240;SDS011;11289;52.524;13.694;2022-07-29T10:17:41;2.88;;;1.20;;
22240;SDS011;11289;52.524;13.694;2022-07-29T10:20:08;4.18;;;1.30;;
22240;SDS011;11289;52.524;13.694;2022-07-29T10:22:34;3.53;;;1.02;;
22240;SDS011;11289;52.524;13.694;2022-07-29T10:24:59;2.28;;;1.00;;
22240;SDS011;11289;52.524;13.694;2022-07-29T10:27:25;4.22;;;1.00;;
22240;SDS011;11289;52.524;13.694;2022-07-29T10:29:50;2.38;;;1.15;;
22240;SDS011;11289;52.524;13.694;2022-07-29T10:43:36;2.75;;;1.35;;
22240;SDS011;11289;52.524;13.694;2022-07-29T10:46:06;2.08;;;1.20;;
22240;SDS011;11289;52.524;13.694;2022-07-29T10:48:32;4.28;;;1.35;;
22240;SDS011;11289;52.524;13.694;2022-07-29T10:50:58;4.07;;;1.27;;
22240;SDS011;11289;52.524;13.694;2022-07-29T10:53:45;1.98;;;1.20;;
22240;SDS011;11289;52.524;13.694;2022-07-29T10:56:29;5.80;;;1.30;;
22240;SDS011;11289;52.524;13.694;2022-07-29T11:01:49;2.58;;;1.52;;
22240;SDS011;11289;52.524;13.694;2022-07-29T11:04:15;5.65;;;1.42;;
22240;SDS011;11289;52.524;13.694;2022-07-29T11:09:29;5.85;;;1.73;;
22240;SDS011;11289;52.524;13.694;2022-07-29T11:11:55;2.28;;;1.40;;
22240;SDS011;11289;52.524;13.694;2022-07-29T11:17:25;8.80;;;2.17;;
22240;SDS011;11289;52.524;13.694;2022-07-29T11:19:51;3.92;;;1.35;;
22240;SDS011;11289;52.524;13.694;2022-07-29T11:22:35;6.20;;;1.60;;
22240;SDS011;11289;52.524;13.694;2022-07-29T11:25:17;4.63;;;1.50;;
22240;SDS011;11289;52.524;13.694;2022-07-29T11:27:46;8.32;;;1.95;;
22240;SDS011;11289;52.524;13.694;2022-07-29T11:30:12;5.10;;;1.40;;
22240;SDS011;11289;52.524;13.694;2022-07-29T11:32:38;5.32;;;1.50;;
22240;SDS011;11289;52.524;13.694;2022-07-29T11:37:38;3.50;;;1.35;;
22240;SDS011;11289;52.524;13.694;2022-07-29T11:45:02;4.13;;;1.97;;
22240;SDS011;11289;52.524;13.694;2022-07-29T11:47:34;3.88;;;1.98;;
22240;SDS011;11289;52.524;13.694;2022-07-29T11:50:02;3.90;;;1.70;;
22240;SDS011;11289;52.524;13.694;2022-07-29T11:52:35;7.30;;;2.03;;
22240;SDS011;11289;52.524;13.694;2022-07-29T11:55:07;5.18;;;1.40;;
22240;SDS011;11289;52.524;13.694;2022-07-29T11:57:34;4.57;;;1.55;;
22240;SDS011;11289;52.524;13.694;2022-07-29T12:00:00;3.22;;;1.77;;
22240;SDS011;11289;52.524;13.694;2022-07-29T12:02:37;6.35;;;1.80;;
22240;SDS011;11289;52.524;13.694;2022-07-29T12:05:06;2.65;;;1.52;;
22240;SDS011;11289;52.524;13.694;2022-07-29T12:07:33;3.78;;;2.00;;
22240;SDS011;11289;52.524;13.694;2022-07-29T12:09:59;4.90;;;2.08;;
22240;SDS011;11289;52.524;13.694;2022-07-29T12:12:25;7.25;;;1.73;;
22240;SDS011;11289;52.524;13.694;2022-07-29T12:14:51;6.07;;;1.60;;
22240;SDS011;11289;52.524;13.694;2022-07-29T12:19:55;5.05;;;1.83;;
22240;SDS011;11289;52.524;13.694;2022-07-29T12:22:36;2.80;;;1.95;;
22240;SDS011;11289;52.524;13.694;2022-07-29T12:25:09;3.53;;;1.77;;
22240;SDS011;11289;52.524;13.694;2022-07-29T12:27:36;4.53;;;2.13;;
22240;SDS011;11289;52.524;13.694;2022-07-29T12:32:32;6.90;;;2.25;;
22240;SDS011;11289;52.524;13.694;2022-07-29T12:35:00;8.07;;;2.00;;
22240;SDS011;11289;52.524;13.694;2022-07-29T12:37:28;5.00;;;1.70;;
22240;SDS011;11289;52.524;13.694;2022-07-29T12:39:54;2.70;;;1.70;;
22240;SDS011;11289;52.524;13.694;2022-07-29T12:42:19;5.47;;;2.35;;
22240;SDS011;11289;52.524;13.694;2022-07-29T12:44:46;3.17;;;1.90;;
22240;SDS011;11289;52.524;13.694;2022-07-29T12:47:12;5.18;;;1.88;;
22240;SDS011;11289;52.524;13.694;2022-07-29T12:49:38;3.25;;;1.90;;
22240;SDS011;11289;52.524;13.694;2022-07-29T12:54:55;4.57;;;2.10;;
22240;SDS011;11289;52.524;13.694;2022-07-29T12:57:21;4.40;;;2.35;;
22240;SDS011;11289;52.524;13.694;2022-07-29T13:00:06;5.68;;;1.95;;
22240;SDS011;11289;52.524;13.694;2022-07-29T13:02:35;3.70;;;2.33;;
22240;SDS011;11289;52.524;13.694;2022-07-29T13:05:01;3.13;;;1.40;;
22240;SDS011;11289;52.524;13.694;2022-07-29T13:07:30;3.53;;;1.63;;
22240;SDS011;11289;52.524;13.694;2022-07-29T13:12:34;4.65;;;2.10;;
22240;SDS011;11289;52.524;13.694;2022-07-29T13:15:00;4.50;;;2.17;;
22240;SDS011;11289;52.524;13.694;2022-07-29T13:17:40;3.67;;;1.88;;
22240;SDS011;11289;52.524;13.694;2022-07-29T13:20:08;5.47;;;1.77;;
22240;SDS011;11289;52.524;13.694;2022-07-29T13:22:37;6.85;;;2.05;;
22240;SDS011;11289;52.524;13.694;2022-07-29T13:25:05;3.95;;;1.90;;
22240;SDS011;11289;52.524;13.694;2022-07-29T13:27:34;5.25;;;2.08;;
22240;SDS011;11289;52.524;13.694;2022-07-29T13:30:02;6.13;;;2.20;;
22240;SDS011;11289;52.524;13.694;2022-07-29T13:32:31;2.80;;;2.03;;
22240;SDS011;11289;52.524;13.694;2022-07-29T13:35:02;3.85;;;2.05;;
22240;SDS011;11289;52.524;13.694;2022-07-29T13:37:30;4.97;;;2.38;;
22240;SDS011;11289;52.524;13.694;2022-07-29T13:39:57;4.45;;;2.30;;
22240;SDS011;11289;52.524;13.694;2022-07-29T13:42:24;5.53;;;1.95;;
22240;SDS011;11289;52.524;13.694;2022-07-29T13:44:50;5.22;;;2.15;;
22240;SDS011;11289;52.524;13.694;2022-07-29T13:47:16;5.50;;;2.00;;
22240;SDS011;11289;52.524;13.694;2022-07-29T13:49:45;4.65;;;2.10;;
22240;SDS011;11289;52.524;13.694;2022-07-29T13:52:11;7.07;;;2.13;;
22240;SDS011;11289;52.524;13.694;2022-07-29T13:54:36;5.43;;;2.50;;
22240;SDS011;11289;52.524;13.694;2022-07-29T13:57:03;2.80;;;1.98;;
22240;SDS011;11289;52.524;13.694;2022-07-29T13:59:29;4.47;;;2.20;;
22240;SDS011;11289;52.524;13.694;2022-07-29T14:01:55;6.95;;;2.10;;
22240;SDS011;11289;52.524;13.694;2022-07-29T14:04:20;4.35;;;2.17;;
22240;SDS011;11289;52.524;13.694;2022-07-29T14:06:48;6.22;;;2.00;;
22240;SDS011;11289;52.524;13.694;2022-07-29T14:09:13;6.50;;;2.45;;
22240;SDS011;11289;52.524;13.694;2022-07-29T14:11:39;6.18;;;2.45;;
22240;SDS011;11289;52.524;13.694;2022-07-29T14:14:04;4.38;;;1.98;;
22240;SDS011;11289;52.524;13.694;2022-07-29T14:16:30;3.95;;;2.20;;
22240;SDS011;11289;52.524;13.694;2022-07-29T14:18:55;3.95;;;2.47;;
22240;SDS011;11289;52.524;13.694;2022-07-29T14:21:21;5.47;;;2.13;;
22240;SDS011;11289;52.524;13.694;2022-07-29T14:23:46;4.90;;;2.10;;
22240;SDS011;11289;52.524;13.694;2022-07-29T14:26:12;5.18;;;2.40;;
22240;SDS011;11289;52.524;13.694;2022-07-29T14:28:38;5.40;;;1.92;;
22240;SDS011;11289;52.524;13.694;2022-07-29T14:31:03;3.30;;;1.90;;
22240;SDS011;11289;52.524;13.694;2022-07-29T14:33:28;5.07;;;2.00;;
22240;SDS011;11289;52.524;13.694;2022-07-29T14:35:54;6.50;;;2.40;;
22240;SDS011;11289;52.524;13.694;2022-07-29T14:38:19;3.60;;;1.70;;
22240;SDS011;11289;52.524;13.694;2022-07-29T14:40:44;4.57;;;1.85;;
22240;SDS011;11289;52.524;13.694;2022-07-29T14:43:11;3.90;;;2.45;;
22240;SDS011;11289;52.524;13.694;2022-07-29T14:45:37;10.88;;;2.72;;
22240;SDS011;11289;52.524;13.694;2022-07-29T14:48:03;4.93;;;2.13;;
22240;SDS011;11289;52.524;13.694;2022-07-29T14:50:28;3.88;;;1.98;;
22240;SDS011;11289;52.524;13.694;2022-07-29T14:52:53;3.55;;;1.65;;
22240;SDS011;11289;52.524;13.694;2022-07-29T14:55:19;6.25;;;2.22;;
22240;SDS011;11289;52.524;13.694;2022-07-29T14:57:44;4.85;;;2.35;;
22240;SDS011;11289;52.524;13.694;2022-07-29T15:00:10;9.27;;;2.05;;
22240;SDS011;11289;52.524;13.694;2022-07-29T15:02:36;5.20;;;1.60;;
22240;SDS011;11289;52.524;13.694;2022-07-29T15:05:02;6.72;;;1.95;;
22240;SDS011;11289;52.524;13.694;2022-07-29T15:07:28;5.88;;;1.50;;
22240;SDS011;11289;52.524;13.694;2022-07-29T15:09:53;3.65;;;1.40;;
22240;SDS011;11289;52.524;13.694;2022-07-29T15:12:18;5.00;;;2.17;;
22240;SDS011;11289;52.524;13.694;2022-07-29T15:14:44;4.68;;;1.70;;
22240;SDS011;11289;52.524;13.694;2022-07-29T15:17:09;4.55;;;1.30;;
22240;SDS011;11289;52.524;13.694;2022-07-29T15:19:35;2.83;;;1.15;;
22240;SDS011;11289;52.524;13.694;2022-07-29T15:22:00;3.65;;;1.60;;
22240;SDS011;11289;52.524;13.694;2022-07-29T15:24:26;2.47;;;1.27;;
22240;SDS011;11289;52.524;13.694;2022-07-29T15:26:51;3.95;;;1.55;;
22240;SDS011;11289;52.524;13.694;2022-07-29T15:29:17;4.95;;;1.77;;
22240;SDS011;11289;52.524;13.694;2022-07-29T15:31:42;8.48;;;1.77;;
22240;SDS011;11289;52.524;13.694;2022-07-29T15:34:08;7.38;;;1.63;;
22240;SDS011;11289;52.524;13.694;2022-07-29T15:36:33;5.30;;;1.80;;